Latest Coastal Weather Observations for Portland Airport

IDS60701

Issued at 7:25 pm CDT Sunday 23 November 2014 (issued every 10 minutes, with the page automatically refreshed every 10 minutes)

About coastal observations | Map of coastal stations | Coastal observations for SA | Marine services | Other Formats
Station Details ID: 090171 Name: CASHMORE AIRPORT Lat: -38.31 Lon: 141.47 Height: 80.9 m
Data from the previous 72 hours. | See also: Recent months at Portland Airport
Date/Time
CDT
Temp

°C
Wind Pressure Rain
since 9am
mm
Weather Cloud Vis
km
Sea
Height
m
Swell
Dir
 
Speed
knots
Gust
knots
hPa Trend Height
m
Period
s
Dir
23/07:00pm 16.1 S 4 7 1012.2 - 0.2 - - 10 - - - -
23/06:30pm 16.4 S 5 7 1011.6 - 0.2 - - 10 - - - -
23/06:00pm 17.1 S 6 10 1011.4 - 0.2 - - 10 - - - -
23/05:30pm 17.4 SW 7 10 1012.2 - 0.2 - Mostly clear 10 - - - -
23/05:00pm 17.3 WSW 12 15 1012.3 - 0.2 - - 10 - - - -
23/04:30pm 18.8 W 15 19 1012.3 - 0.2 - - 10 - - - -
23/04:00pm 19.5 W 16 20 1012.1 - 0.2 - - 10 - - - -
23/03:30pm 19.6 W 14 18 1012.1 - 0.2 - - 10 - - - -
23/03:00pm 19.5 WSW 15 18 1012.2 - 0.2 - - 10 - - - -
23/02:30pm 19.4 W 11 17 1012.1 - 0.2 - - 10 - - - -
23/02:00pm 19.6 W 12 15 1012.2 - 0.2 - - 10 - - - -
23/01:30pm 19.4 W 9 13 1012.1 - 0.2 - - 10 - - - -
23/01:00pm 19.6 WSW 10 14 1012.2 - 0.2 - - 10 - - - -
23/12:30pm 19.0 WSW 9 12 1012.1 - 0.0 - - 10 - - - -
23/12:00pm 19.0 W 10 13 1012.2 - 0.0 - - 10 - - - -
23/11:30am 18.5 W 11 14 1012.5 - 0.0 - - 10 - - - -
23/11:00am 18.3 W 9 13 1012.7 - 0.0 - Partly cloudy 10 - - - -
23/10:30am 17.7 W 9 13 1012.5 - 0.0 - Partly cloudy 10 - - - -
23/10:00am 18.1 W 7 11 1012.8 - 0.0 - Partly cloudy 10 - - - -
23/09:30am 16.9 W 9 13 1013.0 - 0.0 - Partly cloudy 10 - - - -
23/09:00am 16.3 WNW 8 10 1013.2 - 0.0 - Partly cloudy 10 - - - -
23/08:30am 14.7 WNW 7 9 1013.2 - 0.0 - Cloudy 10 - - - -
23/08:28am 15.1 WNW 6 9 1013.2 - 0.0 - Partly cloudy 10 - - - -
23/08:00am 14.9 NW 5 8 1012.6 - 0.0 - Cloudy 10 - - - -
23/07:34am 13.3 WNW 5 7 1012.4 - 0.0 - Partly cloudy 10 - - - -
23/07:30am 13.5 W 4 6 1012.4 - 0.0 - Partly cloudy 10 - - - -
23/07:00am 12.3 W 5 6 1012.0 - 0.0 - - 10 - - - -
23/06:30am 12.7 W 5 6 1011.7 - 0.0 - - 10 - - - -
23/06:00am 11.7 W 6 8 1011.5 - 0.0 - - 7 - - - -
23/05:30am 11.0 W 7 8 1011.2 - 0.0 - Mostly clear 10 - - - -
23/05:00am 9.6 W 6 7 1011.1 - 0.0 - - 9 - - - -
23/04:30am 11.0 W 7 8 1010.8 - 0.0 - - 10 - - - -
23/04:00am 11.5 W 7 8 1010.7 - 0.0 - - 10 - - - -
23/03:30am 10.5 W 6 7 1010.5 - 0.0 - - 9 - - - -
23/03:06am 9.9 W 4 7 1010.6 - 0.0 - - 8 - - - -
23/03:00am 9.8 W 4 6 1010.6 - 0.0 - - 8 - - - -
23/02:37am 10.5 W 4 6 1010.6 - 0.0 - - 6 - - - -
23/02:30am 11.1 W 5 7 1010.6 - 0.0 - Mostly clear 9 - - - -
23/02:00am 11.4 W 6 7 1010.7 - 0.0 - - 10 - - - -
23/01:30am 11.8 W 6 7 1010.9 - 0.0 - Partly cloudy 10 - - - -
23/01:23am 12.0 W 6 7 1011.0 - 0.0 - Partly cloudy 10 - - - -
23/01:07am 12.2 WSW 5 7 1011.1 - 0.0 - Partly cloudy 10 - - - -
23/01:02am 12.4 WSW 5 7 1011.1 - 0.0 - Partly cloudy 10 - - - -
23/01:00am 12.4 WSW 6 9 1011.1 - 0.0 - Partly cloudy 10 - - - -
23/12:38am 12.2 W 5 7 1011.2 - 0.0 - Partly cloudy 9 - - - -
23/12:37am 12.0 W 5 7 1011.2 - 0.0 - Partly cloudy 9 - - - -
23/12:30am 11.3 W 5 6 1011.2 - 0.0 - Partly cloudy 8 - - - -
23/12:25am 11.4 W 5 7 1011.2 - 0.0 - Partly cloudy 7 - - - -
23/12:00am 12.1 W 4 6 1011.1 - 0.0 - Partly cloudy 10 - - - -
 
Date/Time
CDT
Temp

°C
Wind Pressure Rain
since 9am
mm
Weather Cloud Vis
km
Sea
Height
m
Swell
Dir
 
Speed
knots
Gust
knots
hPa Trend Height
m
Period
s
Dir
22/11:30pm 11.7 W 4 5 1010.8 - 0.0 - - 8 - - - -
22/11:00pm 12.6 W 4 5 1010.7 - 0.0 - - 9 - - - -
22/10:30pm 12.2 WSW 5 7 1010.7 - 0.0 - Partly cloudy 10 - - - -
22/10:00pm 12.8 W 4 5 1010.6 - 0.0 - - 10 - - - -
22/09:30pm 13.3 W 5 7 1010.1 - 0.0 - - 10 - - - -
22/09:00pm 14.2 WSW 8 13 1009.4 - 0.0 - - 10 - - - -
22/08:30pm 14.7 WSW 9 13 1008.9 - 0.0 - Mostly clear 10 - - - -
22/08:00pm 15.2 WSW 10 14 1008.3 - 0.0 - Partly cloudy 10 - - - -
22/07:30pm 15.8 WSW 10 16 1007.6 - 0.0 - - 10 - - - -
22/07:00pm 16.6 WSW 15 20 1006.7 - 0.0 - - 10 - - - -
22/06:30pm 17.5 WSW 16 22 1006.2 - 0.0 - - 10 - - - -
22/06:00pm 17.9 W 17 24 1006.5 - 0.0 - - 10 - - - -
22/05:30pm 17.8 W 21 28 1006.0 - 0.0 - Partly cloudy 10 - - - -
22/05:00pm 18.8 W 21 28 1005.5 - 0.0 - Partly cloudy 10 - - - -
22/04:30pm 20.1 W 22 33 1004.9 - 0.0 - Partly cloudy 10 - - - -
22/04:28pm 20.8 W 23 33 1005.0 - 0.0 - Partly cloudy 10 - - - -
22/04:00pm 21.2 W 22 29 1004.6 - 0.0 - Partly cloudy 10 - - - -
22/03:30pm 23.0 W 17 25 1004.3 - 0.0 - Partly cloudy 10 - - - -
22/03:00pm 23.6 WNW 20 31 1004.6 - 0.0 - - 10 - - - -
22/02:31pm 23.8 W 20 32 1004.5 - 0.0 - - 10 - - - -
22/02:30pm 23.8 W 20 29 1004.6 - 0.0 - Mostly clear 10 - - - -
22/02:05pm 24.4 W 22 32 1004.4 - 0.0 - - 10 - - - -
22/02:00pm 24.8 W 21 27 1004.5 - 0.0 - - 10 - - - -
22/01:38pm 27.8 WNW 15 25 1004.2 - 0.0 - - 10 - - - -
22/01:30pm 28.8 WNW 13 19 1004.5 - 0.0 - Partly cloudy 10 - - - -
22/01:00pm 28.9 NW 16 28 1004.5 - 0.0 - Partly cloudy 10 - - - -
22/12:30pm 28.3 NNW 18 28 1004.8 - 0.0 - Partly cloudy 10 - - - -
22/12:05pm 27.4 NNW 17 27 1005.1 - 0.0 - Partly cloudy 10 - - - -
22/12:00pm 27.0 NNW 17 25 1005.1 - 0.0 - Partly cloudy 10 - - - -
22/11:44am 26.9 N 16 26 1005.1 - 0.0 - Partly cloudy 10 - - - -
22/11:30am 26.2 N 17 24 1005.2 - 0.0 - Partly cloudy 10 - - - -
22/11:18am 25.8 N 16 27 1005.4 - 0.0 - Partly cloudy 10 - - - -
22/11:00am 25.0 N 15 22 1005.5 - 0.0 - Partly cloudy 10 - - - -
22/10:30am 22.9 N 15 23 1005.7 - 0.0 - Partly cloudy 10 - - - -
22/10:00am 21.1 N 12 18 1006.3 - 0.0 - - 10 - - - -
22/09:30am 19.0 N 11 16 1006.6 - 0.0 - - 10 - - - -
22/09:00am 17.7 N 9 14 1007.3 - 0.0 - Partly cloudy 10 - - - -
22/08:30am 17.3 N 11 17 1007.6 - 1.8 - Mostly cloudy 10 - - - -
22/08:00am 15.6 NNE 12 17 1006.9 - 1.8 - Partly cloudy 10 - - - -
22/07:30am 13.6 NNE 9 11 1006.8 - 1.8 - Partly cloudy 10 - - - -
22/07:00am 12.8 NNE 9 13 1006.8 - 1.8 - Partly cloudy 10 - - - -
22/06:30am 12.1 NE 5 7 1007.3 - 1.8 - Partly cloudy 10 - - - -
22/06:00am 12.4 NE 6 12 1007.4 - 1.8 - Partly cloudy 10 - - - -
22/05:45am 12.3 NNE 7 15 1006.5 - 1.6 - Cloudy 10 - - - -
22/05:30am 12.3 N 6 9 1008.8 - 1.4 Recent precip. Cloudy 10 - - - -
22/05:00am 12.5 N 7 9 1009.9 - 0.8 - Partly cloudy 10 - - - -
22/04:30am 12.5 ENE 5 9 1008.1 - 0.6 - Partly cloudy 10 - - - -
22/04:00am 12.3 NE 3 4 1009.0 - 0.0 - Partly cloudy 10 - - - -
22/03:30am 12.7 CALM 0 4 1009.7 - 0.0 - Partly cloudy 10 - - - -
22/03:00am 12.4 W 3 4 1010.6 - 0.0 - Cloudy 10 - - - -
22/02:30am 12.9 W 3 7 1010.8 - 0.0 - Cloudy 10 - - - -
22/02:00am 12.8 SSW 5 8 1009.7 - 0.0 - Partly cloudy 10 - - - -
22/01:30am 12.3 NNE 6 7 1009.0 - 0.0 - Partly cloudy 10 - - - -
22/01:00am 12.2 NNE 7 10 1009.1 - 0.0 - Cloudy 10 - - - -
22/12:30am 11.9 NNE 6 9 1009.9 - 0.0 - Partly cloudy 10 - - - -
22/12:00am 12.1 NNE 5 8 1010.2 - 0.0 - Partly cloudy 10 - - - -
 
Date/Time
CDT
Temp

°C
Wind Pressure Rain
since 9am
mm
Weather Cloud Vis
km
Sea
Height
m
Swell
Dir
 
Speed
knots
Gust
knots
hPa Trend Height
m
Period
s
Dir
21/11:30pm 12.0 NE 5 6 1010.4 - 0.0 - Cloudy 10 - - - -
21/11:00pm 11.6 N 6 7 1011.4 - 0.0 - - 10 - - - -
21/10:30pm 12.0 N 5 7 1011.7 - 0.0 - - 10 - - - -
21/10:00pm 12.2 WNW 4 5 1011.6 - 0.0 - - 10 - - - -
21/09:30pm 12.7 WNW 4 5 1012.0 - 0.0 - - 10 - - - -
21/09:00pm 13.0 WNW 5 7 1011.8 - 0.0 - - 10 - - - -
21/08:30pm 13.2 W 2 4 1011.6 - 0.0 - - 10 - - - -
21/08:00pm 14.1 W 8 12 1011.8 - 0.0 - - 10 - - - -
21/07:30pm 14.8 W 10 16 1011.5 - 0.0 - - 10 - - - -
21/07:00pm 15.5 W 13 17 1011.2 - 0.0 - - 10 - - - -
21/06:30pm 15.9 W 14 19 1010.9 - 0.0 - - 10 - - - -
21/06:00pm 16.3 W 15 21 1010.8 - 0.0 - - 10 - - - -
21/05:30pm 16.7 W 14 18 1010.6 - 0.0 - - 10 - - - -
21/05:00pm 17.4 W 13 16 1010.4 - 0.0 - - 10 - - - -
21/04:30pm 17.9 W 13 17 1010.5 - 0.0 - - 10 - - - -
21/04:00pm 17.8 W 14 18 1010.7 - 0.0 - - 10 - - - -
21/03:30pm 17.7 W 14 18 1010.9 - 0.0 - - 10 - - - -
21/03:00pm 17.9 W 15 19 1011.0 - 0.0 - - 10 - - - -
21/02:30pm 17.9 W 12 18 1011.3 - 0.0 - - 10 - - - -
21/02:00pm 17.7 W 10 15 1011.3 - 0.0 - - 10 - - - -
21/01:30pm 17.6 W 9 12 1011.5 - 0.0 - - 10 - - - -
21/01:00pm 18.0 W 9 13 1011.6 - 0.0 - - 10 - - - -
21/12:30pm 17.0 W 7 12 1011.9 - 0.0 - - 10 - - - -
21/12:00pm 16.4 WNW 9 14 1012.0 - 0.0 - Partly cloudy 10 - - - -
21/11:30am 16.2 W 9 15 1012.4 - 0.0 - Partly cloudy 10 - - - -
21/11:00am 15.6 W 10 15 1012.3 - 0.0 - Cloudy 10 - - - -
21/10:30am 15.3 W 8 12 1012.4 - 0.0 - Partly cloudy 10 - - - -
21/10:00am 15.6 W 10 15 1012.3 - 0.0 - Partly cloudy 10 - - - -
21/09:30am 14.8 WSW 10 14 1012.2 - 0.0 - Partly cloudy 10 - - - -
21/09:00am 15.0 WSW 9 13 1012.0 - 0.0 - Partly cloudy 10 - - - -
21/08:30am 14.4 WSW 12 18 1011.9 - 8.0 - Cloudy 10 - - - -
21/08:00am 14.3 WSW 10 15 1011.6 - 8.0 - Partly cloudy 10 - - - -
21/07:30am 13.2 WSW 11 14 1011.1 - 8.0 - - 10 - - - -
21/07:00am 11.9 WSW 7 11 1010.8 - 8.0 - Partly cloudy 10 - - - -
21/06:30am 12.0 SW 6 8 1010.1 - 8.0 - Partly cloudy 10 - - - -
21/06:00am 12.0 SW 8 13 1010.4 - 8.0 - Partly cloudy 10 - - - -
21/05:30am 11.8 WSW 12 16 1010.3 - 8.0 - Cloudy 10 - - - -
21/05:00am 11.8 WSW 11 15 1009.6 - 8.0 - Partly cloudy 10 - - - -
21/04:30am 12.0 WSW 10 14 1009.3 - 8.0 - Partly cloudy 10 - - - -
21/04:00am 11.5 WSW 8 10 1008.8 - 8.0 - Partly cloudy 10 - - - -
21/03:30am 11.9 WSW 7 10 1008.4 - 8.0 - Partly cloudy 10 - - - -
21/03:00am 11.9 WSW 8 11 1008.3 - 8.0 - Partly cloudy 10 - - - -
21/02:30am 11.7 WSW 8 12 1008.5 - 8.0 - Partly cloudy 10 - - - -
21/02:00am 11.9 WSW 11 14 1008.5 - 8.0 - Partly cloudy 10 - - - -
21/01:46am 12.4 WSW 8 11 1008.5 - 8.0 - Partly cloudy 10 - - - -
21/01:30am 12.1 WSW 7 10 1008.6 - 8.0 - Partly cloudy 10 - - - -
21/01:19am 11.9 WSW 9 11 1008.7 - 8.0 - Partly cloudy 10 - - - -
21/01:00am 12.2 WSW 12 18 1008.6 - 8.0 - Partly cloudy 5 - - - -
21/12:58am 12.3 WSW 11 18 1008.6 - 8.0 - Partly cloudy 6 - - - -
21/12:51am 12.4 SW 10 14 1008.5 - 8.0 - Partly cloudy 10 - - - -
21/12:45am 12.4 SW 11 15 1008.5 - 8.0 - Partly cloudy 10 - - - -
21/12:37am 12.6 WSW 12 16 1008.4 - 8.0 - Partly cloudy 6 - - - -
21/12:31am 12.6 WSW 12 14 1008.5 - 8.0 - Partly cloudy 10 - - - -
21/12:30am 12.6 WSW 11 14 1008.6 - 8.0 - Partly cloudy 10 - - - -
21/12:21am 12.8 WSW 10 13 1008.5 - 8.0 - Partly cloudy 10 - - - -
21/12:20am 12.8 WSW 10 13 1008.5 - 8.0 - Partly cloudy 10 - - - -
21/12:00am 12.6 WSW 13 19 1008.5 - 8.0 - Partly cloudy 3 - - - -
 
Date/Time
CDT
Temp

°C
Wind Pressure Rain
since 9am
mm
Weather Cloud Vis
km
Sea
Height
m
Swell
Dir
 
Speed
knots
Gust
knots
hPa Trend Height
m
Period
s
Dir
20/11:51pm 13.0 WSW 12 17 1008.4 - 7.8 - Partly cloudy 6 - - - -
20/11:49pm 13.0 WSW 13 17 1008.4 - 7.8 - Partly cloudy 9 - - - -
20/11:30pm 13.3 WSW 12 17 1008.2 - 7.8 Rain Cloudy 2 - - - -
20/11:12pm 13.6 WSW 11 18 1008.1 - 7.6 - Partly cloudy 3 - - - -
20/11:00pm 13.6 WSW 13 19 1008.0 - 7.6 - Partly cloudy 2 - - - -
20/10:30pm 14.4 W 12 17 1007.9 - 7.2 - Partly cloudy 3 - - - -
20/10:25pm 14.5 W 12 15 1007.8 - 7.2 - Partly cloudy 6 - - - -
20/10:00pm 14.5 W 12 17 1007.4 - 7.2 - Cloudy 10 - - - -
20/09:30pm 14.5 W 12 16 1006.8 - 7.2 - Cloudy 10 - - - -
20/09:00pm 14.9 W 13 17 1006.4 - 7.2 - Cloudy 10 - - - -
20/08:30pm 15.1 W 12 16 1006.0 - 7.2 - Cloudy 10 - - - -
20/08:00pm 15.3 W 15 20 1005.5 - 7.2 - Partly cloudy 10 - - - -
20/07:48pm 15.3 WNW 14 19 1005.2 - 7.2 - Partly cloudy 10 - - - -
20/07:32pm 15.4 W 16 23 1005.0 - 7.2 - Partly cloudy 10 - - - -
20/07:30pm 15.4 W 16 23 1005.1 - 7.2 - Partly cloudy 10 - - - -
20/07:00pm 16.2 WNW 16 22 1004.5 - 7.2 - Partly cloudy 10 - - - -

Other Formats:

Comma delimited format used in spreadsheet applications
http://www.bom.gov.au/fwo/IDS60701/IDS60701.94828.axf

JavaScript Object Notation format (JSON) in row-major order
http://www.bom.gov.au/fwo/IDS60701/IDS60701.94828.json